createdAt,value
2022-07-27T00:01:12.109Z,3.50
2022-07-27T00:03:38.942Z,3.30
2022-07-27T00:06:06.590Z,3.30
2022-07-27T00:08:33.879Z,3.30
2022-07-27T00:11:00.839Z,3.87
2022-07-27T00:13:28.778Z,3.47
2022-07-27T00:15:55.918Z,3.60
2022-07-27T00:18:23.011Z,3.70
2022-07-27T00:20:50.037Z,3.17
2022-07-27T00:23:16.795Z,3.63
2022-07-27T00:25:43.767Z,4.27
2022-07-27T00:28:10.890Z,4.63
2022-07-27T00:30:37.732Z,3.50
2022-07-27T00:33:06.809Z,4.40
2022-07-27T00:35:35.769Z,3.77
2022-07-27T00:38:02.807Z,3.60
2022-07-27T00:40:29.680Z,3.10
2022-07-27T00:42:56.683Z,4.17
2022-07-27T00:45:23.864Z,5.00
2022-07-27T00:47:54.770Z,4.03
2022-07-27T00:50:24.528Z,3.50
2022-07-27T00:52:51.990Z,3.20
2022-07-27T00:55:22.387Z,3.17
2022-07-27T00:57:58.544Z,4.13
2022-07-27T01:00:27.717Z,2.93
2022-07-27T01:02:57.136Z,5.83
2022-07-27T01:05:34.296Z,4.40
2022-07-27T01:08:07.257Z,4.03
2022-07-27T01:10:34.528Z,4.17
2022-07-27T01:13:02.207Z,3.30
2022-07-27T01:15:29.510Z,5.20
2022-07-27T01:17:58.873Z,3.90
2022-07-27T01:20:26.051Z,4.47
2022-07-27T01:22:52.795Z,4.20
2022-07-27T01:25:22.418Z,5.00
2022-07-27T01:27:49.182Z,3.60
2022-07-27T01:30:28.813Z,4.23
2022-07-27T01:33:07.100Z,4.13
2022-07-27T01:35:37.565Z,4.93
2022-07-27T01:38:05.467Z,4.77
2022-07-27T01:40:32.673Z,4.80
2022-07-27T01:42:59.472Z,5.70
2022-07-27T01:45:26.557Z,4.90
2022-07-27T01:47:53.311Z,4.00
2022-07-27T01:50:20.329Z,5.00
2022-07-27T01:52:47.059Z,5.53
2022-07-27T01:55:13.836Z,4.73
2022-07-27T01:57:40.916Z,3.80
2022-07-27T02:00:12.141Z,4.50
2022-07-27T02:02:38.935Z,3.90
2022-07-27T02:05:13.488Z,5.33
2022-07-27T02:07:41.645Z,4.20
2022-07-27T02:10:09.876Z,6.07
2022-07-27T02:12:39.312Z,5.73
2022-07-27T02:15:21.731Z,4.30
2022-07-27T02:17:53.036Z,7.10
2022-07-27T02:20:23.164Z,4.03
2022-07-27T02:22:55.211Z,4.50
2022-07-27T02:25:22.337Z,4.37
2022-07-27T02:27:49.183Z,4.17
2022-07-27T02:30:17.725Z,4.47
2022-07-27T02:32:45.300Z,5.20
2022-07-27T02:35:18.538Z,4.80
2022-07-27T02:37:47.916Z,5.97
2022-07-27T02:40:17.311Z,4.40
2022-07-27T02:42:45.320Z,4.87
2022-07-27T02:45:12.122Z,7.53
2022-07-27T02:47:42.604Z,5.07
2022-07-27T02:50:12.736Z,4.70
2022-07-27T02:52:42.617Z,4.77
2022-07-27T02:55:10.560Z,4.30
2022-07-27T02:57:40.895Z,4.83
2022-07-27T03:00:13.780Z,4.57
2022-07-27T03:02:40.983Z,4.20
2022-07-27T03:05:09.658Z,4.60
2022-07-27T03:07:39.485Z,6.83
2022-07-27T03:10:09.562Z,4.50
2022-07-27T03:12:36.302Z,4.47
2022-07-27T03:15:06.940Z,6.07
2022-07-27T03:17:33.971Z,5.10
2022-07-27T03:20:00.730Z,4.67
2022-07-27T03:22:31.061Z,5.80
2022-07-27T03:24:57.983Z,6.13
2022-07-27T03:27:29.387Z,4.40
2022-07-27T03:29:56.998Z,4.80
2022-07-27T03:32:23.816Z,4.40
2022-07-27T03:34:50.880Z,4.93
2022-07-27T03:37:19.008Z,5.53
2022-07-27T03:39:48.985Z,4.70
2022-07-27T03:42:15.753Z,5.43
2022-07-27T03:44:48.050Z,4.97
2022-07-27T03:47:14.836Z,4.80
2022-07-27T03:49:41.847Z,4.60
2022-07-27T03:52:17.205Z,4.63
2022-07-27T03:54:44.802Z,6.33
2022-07-27T03:57:11.562Z,4.57
2022-07-27T03:59:41.718Z,4.33
2022-07-27T04:02:08.561Z,4.63
2022-07-27T04:04:38.771Z,4.50
2022-07-27T04:07:05.588Z,5.50
2022-07-27T04:09:32.640Z,5.03
2022-07-27T04:11:59.605Z,4.80
2022-07-27T04:14:26.702Z,5.13
2022-07-27T04:16:53.536Z,4.97
2022-07-27T04:19:20.618Z,4.90
2022-07-27T04:21:47.742Z,4.23
2022-07-27T04:24:15.032Z,5.30
2022-07-27T04:26:50.151Z,4.90
2022-07-27T04:29:20.965Z,6.27
2022-07-27T04:31:48.050Z,4.97
2022-07-27T04:34:15.136Z,6.60
2022-07-27T04:36:47.164Z,8.03
2022-07-27T04:39:16.184Z,6.90
2022-07-27T04:41:43.203Z,8.47
2022-07-27T04:44:10.006Z,13.87
2022-07-27T04:46:37.485Z,10.73
2022-07-27T04:49:04.372Z,10.67
2022-07-27T04:51:35.664Z,11.23
2022-07-27T04:54:02.777Z,9.13
2022-07-27T04:56:29.686Z,9.67
2022-07-27T04:59:02.982Z,13.23
2022-07-27T05:01:34.989Z,12.23
2022-07-27T05:04:05.672Z,13.60
2022-07-27T05:06:33.419Z,11.17
2022-07-27T05:09:00.444Z,10.77
2022-07-27T05:11:30.477Z,11.47
2022-07-27T05:14:00.594Z,11.33
2022-07-27T05:16:28.969Z,11.47
2022-07-27T05:18:56.488Z,12.87
2022-07-27T05:21:27.341Z,11.03
2022-07-27T05:23:54.413Z,11.20
2022-07-27T05:26:24.574Z,10.10
2022-07-27T05:28:54.586Z,11.20
2022-07-27T05:31:21.364Z,10.27
2022-07-27T05:33:53.385Z,10.63
2022-07-27T05:36:24.300Z,9.67
2022-07-27T05:38:51.299Z,10.93
2022-07-27T05:41:26.575Z,9.27
2022-07-27T05:43:57.445Z,11.50
2022-07-27T05:46:25.606Z,10.47
2022-07-27T05:48:54.198Z,9.63
2022-07-27T05:51:21.013Z,11.00
2022-07-27T05:53:47.995Z,9.67
2022-07-27T05:56:16.930Z,11.10
2022-07-27T05:58:43.641Z,10.20
2022-07-27T06:01:10.658Z,12.03
2022-07-27T06:03:38.446Z,11.83
2022-07-27T06:06:23.916Z,10.53
2022-07-27T06:08:50.812Z,10.37
2022-07-27T06:11:20.208Z,12.23
2022-07-27T06:13:47.215Z,9.60
2022-07-27T06:16:14.019Z,10.40
2022-07-27T06:18:40.863Z,10.47
2022-07-27T06:21:11.015Z,10.00
2022-07-27T06:23:37.806Z,9.87
2022-07-27T06:26:05.263Z,16.03
2022-07-27T06:28:32.462Z,10.97
2022-07-27T06:30:59.952Z,11.27
2022-07-27T06:33:29.252Z,12.90
2022-07-27T06:35:57.374Z,14.80
2022-07-27T06:38:26.003Z,10.53
2022-07-27T06:40:53.725Z,11.40
2022-07-27T06:43:28.612Z,10.97
2022-07-27T06:45:55.878Z,12.10
2022-07-27T06:48:22.710Z,12.57
2022-07-27T06:50:50.784Z,11.60
2022-07-27T06:53:21.148Z,11.80
2022-07-27T06:55:51.816Z,12.17
2022-07-27T06:58:19.439Z,10.20
2022-07-27T07:00:46.318Z,10.10
2022-07-27T07:03:13.485Z,9.17
2022-07-27T07:05:47.770Z,10.77
2022-07-27T07:08:15.076Z,11.00
2022-07-27T07:10:44.224Z,9.27
2022-07-27T07:13:11.526Z,9.37
2022-07-27T07:15:42.682Z,10.47
2022-07-27T07:18:13.081Z,9.23
2022-07-27T07:20:40.649Z,11.97
2022-07-27T07:23:10.561Z,12.40
2022-07-27T07:25:38.649Z,18.37
2022-07-27T07:28:07.021Z,12.17
2022-07-27T07:30:34.115Z,11.87
2022-07-27T07:33:02.060Z,10.93
2022-07-27T07:35:29.502Z,12.77
2022-07-27T07:37:56.293Z,11.40
2022-07-27T07:43:13.046Z,7.33
2022-07-27T07:45:50.834Z,7.53
2022-07-27T07:48:20.549Z,6.83
2022-07-27T07:50:54.082Z,6.03
2022-07-27T07:53:27.241Z,6.97
2022-07-27T07:55:56.983Z,6.70
2022-07-27T07:58:26.483Z,4.93
2022-07-27T08:00:53.371Z,3.73
2022-07-27T08:03:23.211Z,14.53
2022-07-27T08:05:50.297Z,4.43
2022-07-27T08:08:18.080Z,3.47
2022-07-27T08:10:44.908Z,3.73
2022-07-27T08:13:12.000Z,3.70
2022-07-27T08:15:38.819Z,3.43
2022-07-27T08:18:06.795Z,2.90
2022-07-27T08:20:34.258Z,2.70
2022-07-27T08:23:01.721Z,2.50
2022-07-27T08:25:28.546Z,2.60
2022-07-27T08:27:57.969Z,2.40
2022-07-27T08:30:24.942Z,2.70
2022-07-27T08:33:03.284Z,3.17
2022-07-27T08:35:32.203Z,2.90
2022-07-27T08:38:10.287Z,3.00
2022-07-27T08:40:41.963Z,3.13
2022-07-27T08:43:14.005Z,3.87
2022-07-27T08:45:45.586Z,3.60
2022-07-27T08:48:14.452Z,4.03
2022-07-27T08:50:42.917Z,3.60
2022-07-27T08:53:18.427Z,5.67
2022-07-27T08:55:52.276Z,4.10
2022-07-27T08:58:19.211Z,4.87
2022-07-27T09:00:54.884Z,4.30
2022-07-27T09:03:26.184Z,3.80
2022-07-27T09:05:55.433Z,4.43
2022-07-27T09:08:30.282Z,4.60
2022-07-27T09:11:00.173Z,4.97
2022-07-27T09:13:30.553Z,5.80
2022-07-27T09:16:18.461Z,4.97
2022-07-27T09:18:46.399Z,5.23
2022-07-27T09:21:14.707Z,5.17
2022-07-27T09:23:44.596Z,5.53
2022-07-27T09:26:30.601Z,6.33
2022-07-27T09:29:05.077Z,4.87
2022-07-27T09:31:33.366Z,4.97
2022-07-27T09:34:04.419Z,5.13
2022-07-27T09:36:31.927Z,4.73
2022-07-27T09:39:09.019Z,5.67
2022-07-27T09:41:44.190Z,6.03
2022-07-27T09:44:31.866Z,5.77
2022-07-27T09:47:00.030Z,6.37
2022-07-27T09:49:38.259Z,8.93
2022-07-27T09:52:08.438Z,7.47
2022-07-27T09:54:43.658Z,7.63
2022-07-27T09:57:10.959Z,7.53
2022-07-27T09:59:37.812Z,7.63
2022-07-27T10:02:06.110Z,6.37
2022-07-27T10:04:33.648Z,5.73
2022-07-27T10:07:03.996Z,6.20
2022-07-27T10:09:35.274Z,7.10
2022-07-27T10:12:04.656Z,6.93
2022-07-27T10:14:32.922Z,7.57
2022-07-27T10:17:03.120Z,6.13
2022-07-27T10:19:39.889Z,7.03
2022-07-27T10:22:06.755Z,7.27
2022-07-27T10:24:37.419Z,6.03
2022-07-27T10:27:31.138Z,7.07
2022-07-27T10:30:01.211Z,5.80
2022-07-27T10:32:33.117Z,5.13
2022-07-27T10:35:01.488Z,5.60
2022-07-27T10:37:31.058Z,5.83
2022-07-27T10:40:23.742Z,6.67
2022-07-27T10:42:54.367Z,5.43
2022-07-27T10:45:22.422Z,6.63
2022-07-27T10:47:52.930Z,5.40
2022-07-27T10:50:21.095Z,7.73
2022-07-27T10:53:00.141Z,5.73
2022-07-27T10:55:30.358Z,5.10
2022-07-27T10:58:03.572Z,7.63
2022-07-27T11:00:55.700Z,4.87
2022-07-27T11:03:42.397Z,5.50
2022-07-27T11:11:53.591Z,5.80
2022-07-27T11:14:30.671Z,4.67
2022-07-27T11:17:32.229Z,4.90
2022-07-27T11:20:13.398Z,4.73
2022-07-27T11:25:29.548Z,5.07
2022-07-27T11:27:56.395Z,6.67
2022-07-27T11:30:30.942Z,5.47
2022-07-27T11:33:03.384Z,5.67
2022-07-27T11:35:31.560Z,4.53
2022-07-27T11:38:03.896Z,4.80
2022-07-27T11:43:39.536Z,4.70
2022-07-27T11:46:28.244Z,5.27
2022-07-27T11:49:08.676Z,6.03
2022-07-27T11:51:39.679Z,6.37
2022-07-27T11:54:21.095Z,13.00
2022-07-27T11:56:50.384Z,4.03
2022-07-27T11:59:30.919Z,7.60
2022-07-27T12:02:04.643Z,15.87
2022-07-27T12:04:34.662Z,7.53
2022-07-27T12:07:12.388Z,4.97
2022-07-27T12:09:58.803Z,5.83
2022-07-27T12:12:29.731Z,4.57
2022-07-27T12:15:00.783Z,4.93
2022-07-27T12:17:40.929Z,6.43
2022-07-27T12:20:09.293Z,5.67
2022-07-27T12:22:39.175Z,7.63
2022-07-27T12:25:17.043Z,5.27
2022-07-27T12:27:54.914Z,5.50
2022-07-27T12:30:31.610Z,5.83
2022-07-27T12:32:59.214Z,4.23
2022-07-27T12:35:37.307Z,4.50
2022-07-27T12:38:10.295Z,6.07
2022-07-27T12:40:50.652Z,6.67
2022-07-27T12:43:25.246Z,3.93
2022-07-27T12:45:56.222Z,5.10
2022-07-27T12:48:28.874Z,6.03
2022-07-27T12:51:05.252Z,6.57
2022-07-27T12:53:41.699Z,5.07
2022-07-27T12:56:13.501Z,3.07
2022-07-27T12:58:41.353Z,4.87
2022-07-27T13:01:08.996Z,3.87
2022-07-27T13:03:37.120Z,6.93
2022-07-27T13:06:07.923Z,5.10
2022-07-27T13:08:43.174Z,3.97
2022-07-27T13:11:13.818Z,4.87
2022-07-27T13:13:41.099Z,2.87
2022-07-27T13:16:07.933Z,3.57
2022-07-27T13:18:35.100Z,3.67
2022-07-27T13:21:01.982Z,3.67
2022-07-27T13:23:29.627Z,6.30
2022-07-27T13:25:59.449Z,3.67
2022-07-27T13:28:26.334Z,4.63
2022-07-27T13:30:53.210Z,4.60
2022-07-27T13:33:20.085Z,5.43
2022-07-27T13:35:58.966Z,2.63
2022-07-27T13:38:29.120Z,3.80
2022-07-27T13:40:56.139Z,3.33
2022-07-27T13:43:23.080Z,5.17
2022-07-27T13:45:50.455Z,2.63
2022-07-27T13:48:17.188Z,2.10
2022-07-27T13:50:44.142Z,5.57
2022-07-27T13:53:15.864Z,3.97
2022-07-27T13:55:44.682Z,3.00
2022-07-27T13:58:14.313Z,2.67
2022-07-27T14:00:41.293Z,4.50
2022-07-27T14:03:09.634Z,2.97
2022-07-27T14:05:39.555Z,5.80
2022-07-27T14:08:12.347Z,3.40
2022-07-27T14:10:40.059Z,3.07
2022-07-27T14:13:10.875Z,5.07
2022-07-27T14:15:50.295Z,2.80
2022-07-27T14:18:20.948Z,6.30
2022-07-27T14:20:48.342Z,2.70
2022-07-27T14:23:15.813Z,4.00
2022-07-27T14:25:42.693Z,2.17
2022-07-27T14:28:10.609Z,2.70
2022-07-27T14:30:37.489Z,2.60
2022-07-27T14:33:06.999Z,3.73
2022-07-27T14:35:39.945Z,4.40
2022-07-27T14:38:08.124Z,4.83
2022-07-27T14:40:35.339Z,2.60
2022-07-27T14:43:02.692Z,2.67
2022-07-27T14:45:44.042Z,3.37
2022-07-27T14:48:20.348Z,4.70
2022-07-27T14:50:50.106Z,2.10
2022-07-27T14:53:17.488Z,3.87
2022-07-27T14:55:48.079Z,3.33
2022-07-27T14:58:14.904Z,2.97
2022-07-27T15:00:42.259Z,3.87
2022-07-27T15:03:09.160Z,3.47
2022-07-27T15:05:49.988Z,4.40
2022-07-27T15:08:18.804Z,3.17
2022-07-27T15:10:46.679Z,2.33
2022-07-27T15:13:17.933Z,3.28
2022-07-27T15:15:49.166Z,1.48
2022-07-27T15:18:19.178Z,3.55
2022-07-27T15:20:46.267Z,3.25
2022-07-27T15:23:13.881Z,3.75
2022-07-27T15:25:41.394Z,2.15
2022-07-27T15:28:09.706Z,5.03
2022-07-27T15:30:38.852Z,2.63
2022-07-27T15:33:08.976Z,3.30
2022-07-27T15:35:36.448Z,4.37
2022-07-27T15:38:03.631Z,1.93
2022-07-27T15:40:41.922Z,4.00
2022-07-27T15:43:14.082Z,4.53
2022-07-27T15:45:49.660Z,3.40
2022-07-27T15:48:21.779Z,2.53
2022-07-27T15:50:54.518Z,4.05
2022-07-27T15:53:22.695Z,2.67
2022-07-27T15:55:52.892Z,2.40
2022-07-27T15:58:20.259Z,1.55
2022-07-27T16:00:53.716Z,3.10
2022-07-27T16:03:31.152Z,2.50
2022-07-27T16:05:58.692Z,2.42
2022-07-27T16:08:27.621Z,4.35
2022-07-27T16:10:54.421Z,3.33
2022-07-27T16:13:21.359Z,3.67
2022-07-27T16:16:14.170Z,2.47
2022-07-27T16:18:41.468Z,1.40
2022-07-27T16:21:08.330Z,5.07
2022-07-27T16:23:35.746Z,4.85
2022-07-27T16:26:05.074Z,1.92
2022-07-27T16:28:34.201Z,3.20
2022-07-27T16:31:01.451Z,5.15
2022-07-27T16:33:32.523Z,3.03
2022-07-27T16:36:00.487Z,2.63
2022-07-27T16:38:27.735Z,2.50
2022-07-27T16:40:55.238Z,3.17
2022-07-27T16:43:22.015Z,3.10
2022-07-27T16:45:48.870Z,3.67
2022-07-27T16:48:15.817Z,2.90
2022-07-27T16:50:43.063Z,3.75
2022-07-27T16:53:10.960Z,4.07
2022-07-27T16:55:37.745Z,2.83
2022-07-27T16:58:05.303Z,4.47
2022-07-27T17:00:38.182Z,3.33
2022-07-27T17:03:06.395Z,3.00
2022-07-27T17:05:35.839Z,3.33
2022-07-27T17:08:02.717Z,5.93
2022-07-27T17:10:31.044Z,3.10
2022-07-27T17:12:58.172Z,1.90
2022-07-27T17:15:26.210Z,3.10
2022-07-27T17:17:53.086Z,1.50
2022-07-27T17:20:32.971Z,3.73
2022-07-27T17:23:06.001Z,2.83
2022-07-27T17:25:32.782Z,1.93
2022-07-27T17:27:59.516Z,2.83
2022-07-27T17:30:26.319Z,4.90
2022-07-27T17:32:53.897Z,4.20
2022-07-27T17:35:21.254Z,3.53
2022-07-27T17:38:07.672Z,2.73
2022-07-27T17:40:35.624Z,4.07
2022-07-27T17:43:05.210Z,3.20
2022-07-27T17:45:32.027Z,5.53
2022-07-27T17:47:59.266Z,2.50
2022-07-27T17:50:28.719Z,3.50
2022-07-27T17:52:59.300Z,4.03
2022-07-27T17:55:26.252Z,2.77
2022-07-27T17:57:56.180Z,3.23
2022-07-27T18:00:23.535Z,4.10
2022-07-27T18:02:50.341Z,2.27
2022-07-27T18:05:24.679Z,2.80
2022-07-27T18:07:53.660Z,3.70
2022-07-27T18:10:21.692Z,2.73
2022-07-27T18:12:48.473Z,3.87
2022-07-27T18:15:35.197Z,2.97
2022-07-27T18:18:02.019Z,2.67
2022-07-27T18:20:29.199Z,3.43
2022-07-27T18:22:56.234Z,4.60
2022-07-27T18:25:23.219Z,4.50
2022-07-27T18:27:50.734Z,5.10
2022-07-27T18:30:18.053Z,2.40
2022-07-27T18:32:45.510Z,3.17
2022-07-27T18:35:13.494Z,2.50
2022-07-27T18:37:40.504Z,2.23
2022-07-27T18:40:09.580Z,4.87
2022-07-27T18:42:38.108Z,3.57
2022-07-27T18:45:07.316Z,5.40
2022-07-27T18:47:38.625Z,2.43
2022-07-27T18:50:06.622Z,3.93
2022-07-27T18:52:34.812Z,4.43
2022-07-27T18:55:01.578Z,2.63
2022-07-27T18:57:28.991Z,2.87
2022-07-27T18:59:56.208Z,2.83
2022-07-27T19:02:25.670Z,2.90
2022-07-27T19:04:54.452Z,4.40
2022-07-27T19:07:21.961Z,6.03
2022-07-27T19:09:51.275Z,4.57
2022-07-27T19:12:21.033Z,5.97
2022-07-27T19:14:50.178Z,3.27
2022-07-27T19:17:20.076Z,7.50
2022-07-27T19:19:50.029Z,8.63
2022-07-27T19:22:16.901Z,2.90
2022-07-27T19:24:44.251Z,5.80
2022-07-27T19:27:11.100Z,5.50
2022-07-27T19:29:38.273Z,4.47
2022-07-27T19:32:07.867Z,4.10
2022-07-27T19:34:38.418Z,8.07
2022-07-27T19:37:05.341Z,4.27
2022-07-27T19:40:02.059Z,3.67
2022-07-27T19:42:25.194Z,2.70
2022-07-27T19:44:52.439Z,3.67
2022-07-27T19:47:20.825Z,3.50
2022-07-27T19:49:50.732Z,2.53
2022-07-27T19:52:18.490Z,2.63
2022-07-27T19:54:45.692Z,5.13
2022-07-27T19:57:12.837Z,4.83
2022-07-27T19:59:55.319Z,3.17
2022-07-27T20:02:24.091Z,3.53
2022-07-27T20:04:51.811Z,2.83
2022-07-27T20:07:18.570Z,3.30
2022-07-27T20:09:45.386Z,3.33
2022-07-27T20:12:12.629Z,3.00
2022-07-27T20:14:39.437Z,5.00
2022-07-27T20:17:06.935Z,4.63
2022-07-27T20:19:34.794Z,4.43
2022-07-27T20:22:02.336Z,4.07
2022-07-27T20:24:29.487Z,3.77
2022-07-27T20:26:57.588Z,4.00
2022-07-27T20:29:24.873Z,3.13
2022-07-27T20:31:55.435Z,3.03
2022-07-27T20:34:23.366Z,2.90
2022-07-27T20:36:50.551Z,2.63
2022-07-27T20:39:17.910Z,2.90
2022-07-27T20:41:48.278Z,5.47
2022-07-27T20:44:15.092Z,2.77
2022-07-27T20:46:41.822Z,5.97
2022-07-27T20:49:08.975Z,5.07
2022-07-27T20:51:35.852Z,3.10
2022-07-27T20:54:04.506Z,2.97
2022-07-27T20:56:32.122Z,4.60
2022-07-27T20:58:59.087Z,3.00
2022-07-27T21:01:26.220Z,2.77
2022-07-27T21:03:53.225Z,3.00
2022-07-27T21:06:20.088Z,2.80
2022-07-27T21:08:50.202Z,2.70
2022-07-27T21:11:17.109Z,5.17
2022-07-27T21:13:46.220Z,3.93
2022-07-27T21:16:20.571Z,5.93
2022-07-27T21:18:49.950Z,3.80
2022-07-27T21:21:22.946Z,3.40
2022-07-27T21:24:18.889Z,3.00
2022-07-27T21:26:53.187Z,5.33
2022-07-27T21:29:21.015Z,4.20
2022-07-27T21:31:51.019Z,2.53
2022-07-27T21:34:20.696Z,4.27
2022-07-27T21:36:48.554Z,3.33
2022-07-27T21:39:18.404Z,3.33
2022-07-27T21:41:45.911Z,3.30
2022-07-27T21:44:16.120Z,2.97
2022-07-27T21:46:46.564Z,5.23
2022-07-27T21:49:20.746Z,4.23
2022-07-27T21:52:01.430Z,3.83
2022-07-27T21:54:28.386Z,3.57
2022-07-27T21:56:55.488Z,3.23
2022-07-27T21:59:22.220Z,3.10
2022-07-27T22:01:49.286Z,4.57
2022-07-27T22:04:16.990Z,7.53
2022-07-27T22:06:47.218Z,4.93
2022-07-27T22:09:14.617Z,3.70
2022-07-27T22:11:41.478Z,7.93
2022-07-27T22:14:13.845Z,4.07
2022-07-27T22:16:43.395Z,6.53
2022-07-27T22:19:19.297Z,5.90
2022-07-27T22:21:46.327Z,4.90
2022-07-27T22:24:13.329Z,3.23
2022-07-27T22:26:40.557Z,3.70
2022-07-27T22:29:10.653Z,4.00
2022-07-27T22:31:40.526Z,4.27
2022-07-27T22:34:11.015Z,6.63
2022-07-27T22:36:38.310Z,7.43
2022-07-27T22:39:08.113Z,4.23
2022-07-27T22:41:35.192Z,4.70
2022-07-27T22:44:02.010Z,5.53
2022-07-27T22:46:32.318Z,3.13
2022-07-27T22:48:59.463Z,7.63
2022-07-27T22:51:26.458Z,4.67
2022-07-27T22:54:14.205Z,5.80
2022-07-27T22:56:41.386Z,5.97
2022-07-27T22:59:14.804Z,7.23
2022-07-27T23:01:46.978Z,5.33
2022-07-27T23:04:16.308Z,5.00
2022-07-27T23:06:43.584Z,3.93
2022-07-27T23:09:10.894Z,3.93
2022-07-27T23:11:40.703Z,3.80
2022-07-27T23:14:12.102Z,4.33
2022-07-27T23:16:45.387Z,4.60
2022-07-27T23:19:12.320Z,3.87
2022-07-27T23:21:41.789Z,3.70
2022-07-27T23:24:14.306Z,4.23
2022-07-27T23:26:41.968Z,4.13
2022-07-27T23:29:11.481Z,4.00
2022-07-27T23:31:38.603Z,4.17
2022-07-27T23:34:05.430Z,4.93
2022-07-27T23:36:32.212Z,3.67
2022-07-27T23:38:59.223Z,3.80
2022-07-27T23:41:27.053Z,4.83
2022-07-27T23:43:53.782Z,4.57
2022-07-27T23:46:20.671Z,4.40
2022-07-27T23:48:48.354Z,4.17
2022-07-27T23:51:19.743Z,4.87
2022-07-27T23:53:49.785Z,4.63
2022-07-27T23:56:16.736Z,5.13
2022-07-27T23:58:43.632Z,5.23
